Time;durP1;ratioP1;P1;durP2;ratioP2;P2;SDS_P1;SDS_P2;PMS_P1;PMS_P2;Temp;Humidity;BMP_temperature;BMP_pressure;BME280_temperature;BME280_humidity;BME280_pressure;Samples;Min_cycle;Max_cycle;Signal;HPM_P1;HPM_P2
2023/07/21 00:01:07;;;;;;;3.40;1.27;;;;;;;18.55;84.50;99606.78;5087158;28;20140;-62
2023/07/21 00:03:33;;;;;;;6.10;1.88;;;;;;;18.52;84.58;99598.94;5087218;28;20019;-62
2023/07/21 00:06:00;;;;;;;3.95;1.60;;;;;;;18.49;84.69;99596.44;5087687;28;20123;-62
2023/07/21 00:08:28;;;;;;;2.42;1.48;;;;;;;18.49;85.07;99591.03;5088465;28;20096;-63
2023/07/21 00:10:57;;;;;;;3.10;1.67;;;;;;;18.47;84.90;99587.63;5084813;28;20023;-62
2023/07/21 00:13:23;;;;;;;2.17;1.08;;;;;;;18.50;85.74;99596.31;5087891;28;20031;-62
2023/07/21 00:15:49;;;;;;;4.90;1.60;;;;;;;18.52;85.94;99596.22;5086530;28;20027;-62
2023/07/21 00:18:15;;;;;;;2.70;1.33;;;;;;;18.46;86.16;99586.75;5088554;28;20027;-62
2023/07/21 00:20:41;;;;;;;3.38;1.58;;;;;;;18.46;86.13;99586.75;5088652;28;20155;-62
2023/07/21 00:23:06;;;;;;;2.10;1.60;;;;;;;18.40;86.29;99586.31;5086945;28;20074;-62
2023/07/21 00:25:31;;;;;;;2.80;1.40;;;;;;;18.38;86.57;99584.53;5088562;28;20028;-62
2023/07/21 00:27:57;;;;;;;2.53;1.58;;;;;;;18.43;86.28;99580.72;5087985;28;20024;-62
2023/07/21 00:30:23;;;;;;;2.50;1.30;;;;;;;18.44;86.77;99577.03;5088575;28;20027;-62
2023/07/21 00:32:49;;;;;;;2.83;1.33;;;;;;;18.47;87.28;99582.22;5087952;28;20088;-62
2023/07/21 00:35:14;;;;;;;3.50;1.67;;;;;;;18.47;87.17;99582.22;5088322;28;20422;-62
2023/07/21 00:37:41;;;;;;;4.30;1.33;;;;;;;18.43;87.12;99575.31;5083259;28;20557;-62
2023/07/21 00:40:18;;;;;;;2.80;1.50;;;;;;;18.43;87.37;99580.72;5087419;28;20445;-62
2023/07/21 00:42:44;;;;;;;3.17;1.45;;;;;;;18.36;87.46;99577.56;5088492;28;20032;-62
2023/07/21 00:45:13;;;;;;;3.97;1.83;;;;;;;18.31;87.13;99580.59;5086443;28;20101;-61
2023/07/21 00:47:39;;;;;;;4.32;1.75;;;;;;;18.26;86.48;99577.38;5088031;28;20020;-62
2023/07/21 00:50:05;;;;;;;2.30;1.20;;;;;;;18.20;86.54;99577.78;5087777;28;20662;-62
2023/07/21 00:52:31;;;;;;;2.40;1.35;;;;;;;18.15;87.58;99571.84;5086984;28;20067;-62
2023/07/21 00:54:57;;;;;;;3.13;1.40;;;;;;;18.11;87.57;99573.06;5087382;28;20035;-62
2023/07/21 00:57:23;;;;;;;4.28;1.55;;;;;;;18.10;87.73;99574.00;5087116;28;20391;-62
2023/07/21 00:59:49;;;;;;;3.75;1.48;;;;;;;18.12;88.28;99572.06;5085943;28;20032;-62
2023/07/21 01:02:15;;;;;;;2.65;1.42;;;;;;;18.07;89.08;99568.84;5075329;28;20108;-62
2023/07/21 01:04:40;;;;;;;3.47;1.60;;;;;;;18.06;89.16;99577.91;5079187;28;20135;-62
2023/07/21 01:07:08;;;;;;;3.42;1.58;;;;;;;18.05;89.59;99578.88;5087958;28;20058;-62
2023/07/21 01:09:35;;;;;;;2.80;1.88;;;;;;;18.00;89.97;99564.00;5087247;28;20047;-62
2023/07/21 01:12:02;;;;;;;2.30;1.17;;;;;;;18.06;89.76;99574.34;5087221;28;20327;-62
2023/07/21 01:14:29;;;;;;;3.22;1.58;;;;;;;18.07;89.92;99574.22;5070904;28;20034;-62
2023/07/21 01:16:57;;;;;;;3.80;1.52;;;;;;;18.09;89.64;99572.28;5087597;28;20499;-62
2023/07/21 01:19:25;;;;;;;2.80;1.40;;;;;;;18.14;89.58;99574.66;5087330;28;20097;-62
2023/07/21 01:22:05;;;;;;;4.10;1.63;;;;;;;18.20;89.25;99575.09;5086299;28;20786;-62
2023/07/21 01:24:42;;;;;;;6.85;1.90;;;;;;;18.20;87.21;99575.09;5086159;28;20035;-62
2023/07/21 01:27:10;;;;;;;3.42;1.95;;;;;;;18.34;86.49;99585.75;5088217;28;20035;-62
2023/07/21 01:29:41;;;;;;;3.72;1.88;;;;;;;18.42;86.11;99581.69;5087953;28;20032;-62
2023/07/21 01:32:09;;;;;;;2.17;1.58;;;;;;;18.43;86.44;99580.72;5088398;28;20020;-61
2023/07/21 01:34:36;;;;;;;3.13;1.70;;;;;;;18.43;86.70;99580.72;5090726;28;20719;-62
2023/07/21 01:37:03;;;;;;;5.25;1.63;;;;;;;18.38;87.02;99571.09;5091542;28;20028;-62
2023/07/21 01:39:30;;;;;;;3.58;1.48;;;;;;;18.31;87.07;99577.91;5090763;28;20028;-62
2023/07/21 01:41:56;;;;;;;2.75;1.40;;;;;;;18.29;87.52;99578.97;5090726;28;20051;-62
2023/07/21 01:44:22;;;;;;;3.78;1.85;;;;;;;18.23;87.22;99574.88;5090477;28;20035;-62
2023/07/21 01:46:48;;;;;;;4.55;1.52;;;;;;;18.27;88.11;99573.69;5091094;28;20028;-62
2023/07/21 01:49:15;;;;;;;3.95;1.40;;;;;;;18.31;88.22;99567.13;5090623;28;20160;-61
2023/07/21 01:51:41;;;;;;;5.47;1.52;;;;;;;18.38;88.32;99565.69;5089363;28;20036;-62
2023/07/21 01:54:24;;;;;;;4.28;1.52;;;;;;;18.43;88.35;99559.16;5090429;28;20028;-62
2023/07/21 01:56:58;;;;;;;4.32;2.10;;;;;;;18.45;87.39;99562.63;5090177;28;20039;-62
2023/07/21 01:59:25;;;;;;;3.05;1.67;;;;;;;18.46;85.98;99567.03;5091051;28;20024;-62
2023/07/21 02:01:54;;;;;;;2.97;1.60;;;;;;;18.45;86.18;99562.63;5089509;28;20036;-62
2023/07/21 02:04:20;;;;;;;4.07;1.65;;;;;;;18.42;84.92;99561.00;5090461;28;20078;-62
2023/07/21 02:06:47;;;;;;;4.50;1.60;;;;;;;18.41;82.46;99555.72;5088863;28;20110;-63
2023/07/21 02:09:13;;;;;;;2.53;1.38;;;;;;;18.46;81.61;99548.16;5089786;28;20024;-62
2023/07/21 02:11:38;;;;;;;5.68;1.83;;;;;;;18.41;78.12;99551.19;5077252;28;20341;-62
2023/07/21 02:14:04;;;;;;;3.10;1.42;;;;;;;18.47;78.64;99549.91;5085780;28;20032;-62
2023/07/21 02:16:30;;;;;;;3.10;1.60;;;;;;;18.46;78.40;99543.66;5088476;28;20411;-62
2023/07/21 02:18:56;;;;;;;3.20;1.75;;;;;;;18.47;77.03;99547.22;5076961;28;20048;-62
2023/07/21 02:21:21;;;;;;;3.80;1.40;;;;;;;18.46;76.87;99545.47;5091401;28;20113;-62
2023/07/21 02:23:47;;;;;;;4.32;1.30;;;;;;;18.47;77.66;99539.13;5091644;28;20515;-62
2023/07/21 02:26:12;;;;;;;2.75;1.10;;;;;;;18.46;77.95;99532.88;5090716;28;20043;-61
2023/07/21 02:28:37;;;;;;;3.60;1.40;;;;;;;18.46;78.16;99538.25;5091167;28;20039;-62
2023/07/21 02:31:04;;;;;;;2.75;1.45;;;;;;;18.43;78.38;99532.25;5090547;28;20106;-61
2023/07/21 02:33:30;;;;;;;3.28;1.50;;;;;;;18.33;78.89;99527.47;5090490;28;20023;-62
2023/07/21 02:35:57;;;;;;;3.55;1.58;;;;;;;18.31;79.76;99534.81;5090999;28;20086;-62
2023/07/21 02:38:23;;;;;;;2.97;1.50;;;;;;;18.26;80.03;99536.97;5090095;28;20039;-62
2023/07/21 02:40:49;;;;;;;4.70;1.75;;;;;;;18.18;80.54;99543.88;5084879;28;20016;-62
2023/07/21 02:43:17;;;;;;;3.28;1.75;;;;;;;18.11;80.69;99539.88;5089933;28;20020;-62
2023/07/21 02:45:49;;;;;;;2.95;1.23;;;;;;;18.04;80.85;99535.88;5088968;28;20026;-62
2023/07/21 02:48:16;;;;;;;4.50;1.67;;;;;;;17.98;81.37;99542.59;5089952;28;20028;-62
2023/07/21 02:50:41;;;;;;;2.55;1.45;;;;;;;17.98;82.03;99541.72;5089077;28;20024;-62
2023/07/21 02:53:07;;;;;;;2.83;1.30;;;;;;;17.94;81.81;99535.69;5091032;28;20024;-62
2023/07/21 02:55:32;;;;;;;3.92;1.95;;;;;;;17.97;81.53;99540.84;5089819;28;20861;-61
2023/07/21 02:57:58;;;;;;;3.88;1.75;;;;;;;18.03;81.09;99543.13;5090359;28;20028;-62
2023/07/21 03:00:23;;;;;;;2.35;1.55;;;;;;;18.09;80.97;99540.00;5070938;28;20383;-61
2023/07/21 03:02:48;;;;;;;3.03;1.60;;;;;;;18.07;81.51;99533.00;5089665;28;20028;-62
2023/07/21 03:05:14;;;;;;;3.63;1.75;;;;;;;18.08;81.34;99530.22;5089408;28;20038;-62
2023/07/21 03:07:40;;;;;;;5.15;1.98;;;;;;;18.09;81.91;99537.31;5071054;28;20100;-62
2023/07/21 03:10:07;;;;;;;3.25;1.70;;;;;;;18.08;82.41;99527.50;5082157;28;20020;-63
2023/07/21 03:12:33;;;;;;;4.60;2.08;;;;;;;17.98;78.36;99531.81;5072822;28;20024;-63
2023/07/21 03:14:59;;;;;;;3.72;1.55;;;;;;;18.03;77.96;99528.78;5074790;28;20028;-64
2023/07/21 03:17:24;;;;;;;9.20;1.80;;;;;;;18.08;77.89;99540.09;5089258;28;20361;-62
2023/07/21 03:19:49;;;;;;;5.30;1.80;;;;;;;18.10;77.99;99539.00;5086706;28;20031;-62
2023/07/21 03:22:16;;;;;;;4.68;1.98;;;;;;;18.05;79.90;99543.88;5074156;28;20025;-63
2023/07/21 03:24:41;;;;;;;3.22;1.90;;;;;;;17.95;80.81;99542.81;5070293;28;20032;-62
2023/07/21 03:27:07;;;;;;;2.83;1.60;;;;;;;17.84;81.20;99531.91;5076956;28;20471;-63
2023/07/21 03:29:32;;;;;;;3.92;1.83;;;;;;;17.74;82.09;99533.50;5089485;28;20445;-63
2023/07/21 03:31:58;;;;;;;2.70;1.58;;;;;;;17.75;82.03;99539.78;5089428;28;20130;-63
2023/07/21 03:34:23;;;;;;;4.43;1.52;;;;;;;17.53;81.33;99501.88;5085700;28;20035;-63
2023/07/21 03:36:50;;;;;;;2.80;1.90;;;;;;;17.82;81.86;99541.06;5072770;28;20166;-62
2023/07/21 03:39:15;;;;;;;3.95;1.60;;;;;;;17.80;81.98;99543.88;5078366;28;20089;-62
2023/07/21 03:41:41;;;;;;;3.65;2.15;;;;;;;17.80;81.99;99549.25;5073315;28;20020;-62
2023/07/21 03:44:07;;;;;;;3.95;1.80;;;;;;;17.81;82.21;99544.72;5081256;28;20366;-63
2023/07/21 03:46:32;;;;;;;6.15;1.83;;;;;;;17.82;82.28;99544.63;5085776;28;20089;-63
2023/07/21 03:48:58;;;;;;;4.78;1.85;;;;;;;17.84;82.22;99539.16;5086704;28;20024;-62
2023/07/21 03:51:23;;;;;;;4.28;1.90;;;;;;;17.88;82.17;99544.19;5084870;28;20106;-63
2023/07/21 03:53:49;;;;;;;5.28;1.98;;;;;;;17.90;82.88;99536.88;5088547;28;20032;-62
2023/07/21 03:56:14;;;;;;;3.42;1.70;;;;;;;17.90;83.21;99534.19;5086786;28;20020;-62
2023/07/21 03:58:39;;;;;;;4.15;2.17;;;;;;;17.90;81.09;99531.50;5084889;28;20043;-62
2023/07/21 04:01:05;;;;;;;4.72;1.90;;;;;;;17.92;80.66;99540.31;5084673;28;20114;-63
2023/07/21 04:03:30;;;;;;;4.53;1.70;;;;;;;17.98;80.47;99533.66;5085195;28;20032;-62
2023/07/21 04:05:57;;;;;;;7.60;1.70;;;;;;;18.00;80.63;99529.03;5086597;28;20168;-63
2023/07/21 04:08:23;;;;;;;4.38;2.47;;;;;;;18.08;81.02;99538.28;5085263;28;20065;-63
2023/07/21 04:10:48;;;;;;;7.78;1.73;;;;;;;18.12;81.88;99539.78;5086431;28;20028;-62
2023/07/21 04:13:14;;;;;;;2.67;1.48;;;;;;;18.12;82.47;99533.53;5086719;28;20015;-63
2023/07/21 04:15:39;;;;;;;3.63;1.42;;;;;;;18.14;82.52;99527.06;5086798;28;20085;-63
2023/07/21 04:18:05;;;;;;;2.67;1.52;;;;;;;18.21;81.97;99528.38;5088543;28;20034;-63
2023/07/21 04:20:31;;;;;;;3.17;1.73;;;;;;;18.25;81.01;99524.47;5083535;28;20077;-63
2023/07/21 04:22:57;;;;;;;5.72;1.67;;;;;;;18.35;80.16;99528.22;5087868;28;20035;-63
2023/07/21 04:25:22;;;;;;;7.57;1.52;;;;;;;18.37;79.16;99517.34;5087585;28;20028;-63
2023/07/21 04:27:50;;;;;;;3.33;1.70;;;;;;;18.55;77.04;99525.97;5087759;28;20707;-63
2023/07/21 04:30:16;;;;;;;7.70;2.28;;;;;;;18.63;76.37;99524.44;5086194;28;20028;-63
2023/07/21 04:32:42;;;;;;;4.40;1.75;;;;;;;18.73;76.59;99530.00;5087107;28;20032;-63
2023/07/21 04:35:08;;;;;;;3.20;1.63;;;;;;;18.79;76.47;99530.41;5068349;28;20077;-63
2023/07/21 04:37:37;;;;;;;2.90;1.55;;;;;;;18.80;76.28;99525.88;5086657;28;20043;-63
2023/07/21 04:40:04;;;;;;;3.60;1.50;;;;;;;18.83;76.09;99534.59;5086633;28;20395;-63
2023/07/21 04:42:30;;;;;;;4.43;1.73;;;;;;;18.90;75.85;99532.31;5084119;28;20035;-63
2023/07/21 04:44:55;;;;;;;2.30;1.50;;;;;;;18.93;76.60;99534.81;5071361;28;20031;-63
2023/07/21 04:47:22;;;;;;;2.15;1.38;;;;;;;18.95;78.22;99535.53;5087696;28;20027;-63
2023/07/21 04:49:48;;;;;;;4.20;1.70;;;;;;;18.99;79.01;99531.63;5087810;28;20020;-62
2023/07/21 04:52:15;;;;;;;5.15;1.60;;;;;;;18.99;78.13;99528.94;5086487;28;20446;-63
2023/07/21 04:54:40;;;;;;;8.07;1.92;;;;;;;19.08;77.93;99539.91;5084535;28;20092;-63
2023/07/21 04:57:06;;;;;;;5.20;1.50;;;;;;;19.10;76.69;99547.88;5085811;28;20055;-63
2023/07/21 04:59:31;;;;;;;3.60;2.00;;;;;;;19.11;75.94;99546.91;5086710;28;20032;-63
2023/07/21 05:01:58;;;;;;;3.28;1.65;;;;;;;19.08;75.82;99545.28;5085857;28;20415;-63
2023/07/21 05:04:23;;;;;;;4.15;1.58;;;;;;;19.11;76.53;99544.22;5085610;28;20043;-63
2023/07/21 05:06:49;;;;;;;4.65;1.70;;;;;;;19.11;76.53;99544.22;5086766;28;20028;-63
2023/07/21 05:09:14;;;;;;;4.30;2.30;;;;;;;19.13;76.02;99542.22;5086318;28;20024;-63
2023/07/21 05:11:43;;;;;;;4.45;2.25;;;;;;;19.19;76.12;99541.78;5087939;28;20047;-63
2023/07/21 05:14:08;;;;;;;8.43;2.55;;;;;;;19.20;75.61;99543.50;5086904;28;20024;-63
2023/07/21 05:16:37;;;;;;;5.80;1.88;;;;;;;19.18;75.29;99531.97;5087147;28;20658;-63
2023/07/21 05:19:03;;;;;;;5.07;1.90;;;;;;;19.24;74.59;99532.38;5087636;28;20028;-63
2023/07/21 05:21:29;;;;;;;3.97;1.77;;;;;;;19.34;73.42;99540.69;5087581;28;20031;-63
2023/07/21 05:23:54;;;;;;;4.43;1.75;;;;;;;19.38;71.96;99539.44;5067455;28;20043;-63
2023/07/21 05:26:21;;;;;;;6.22;1.80;;;;;;;19.43;71.12;99534.56;5085711;28;20483;-63
2023/07/21 05:28:48;;;;;;;6.70;1.85;;;;;;;19.49;70.99;99540.34;5078347;28;20445;-64
2023/07/21 05:31:14;;;;;;;3.95;1.58;;;;;;;19.56;71.04;99533.53;5084184;28;20066;-63
2023/07/21 05:33:39;;;;;;;5.30;2.17;;;;;;;19.67;70.94;99535.38;5079832;28;20058;-64
2023/07/21 05:36:07;;;;;;;5.50;1.80;;;;;;;19.78;71.10;99532.72;5082076;28;20231;-63
2023/07/21 05:38:34;;;;;;;10.48;2.35;;;;;;;19.89;70.37;99524.63;5084608;28;20028;-64
2023/07/21 05:41:00;;;;;;;5.90;1.85;;;;;;;20.12;70.23;99534.50;5081348;28;20036;-64
2023/07/21 05:43:25;;;;;;;13.98;2.20;;;;;;;20.28;69.32;99537.72;5077028;28;20031;-63
2023/07/21 05:45:51;;;;;;;8.40;1.88;;;;;;;20.43;68.72;99541.91;5060168;28;20093;-63
2023/07/21 05:48:16;;;;;;;5.65;2.70;;;;;;;20.55;68.19;99542.75;5062719;28;20027;-64
2023/07/21 05:50:42;;;;;;;5.25;2.00;;;;;;;20.63;67.22;99551.97;5082677;28;20024;-63
2023/07/21 05:53:07;;;;;;;5.72;1.77;;;;;;;20.78;66.42;99557.97;5085777;28;20107;-64
2023/07/21 05:55:33;;;;;;;2.53;1.30;;;;;;;20.95;66.83;99558.28;5086278;28;20028;-63
2023/07/21 05:57:59;;;;;;;5.97;1.55;;;;;;;21.14;67.48;99568.50;5071169;28;20564;-64
2023/07/21 06:00:25;;;;;;;4.60;1.80;;;;;;;21.28;66.90;99561.94;5070806;28;20033;-64
2023/07/21 06:02:51;;;;;;;3.42;1.42;;;;;;;21.31;66.74;99561.69;5080876;28;20024;-64
2023/07/21 06:05:16;;;;;;;3.50;1.70;;;;;;;21.33;65.59;99557.00;5073555;28;20537;-64
2023/07/21 06:07:44;;;;;;;4.57;1.45;;;;;;;21.45;64.92;99566.81;5075929;28;20032;-64
2023/07/21 06:10:10;;;;;;;4.32;1.33;;;;;;;21.43;65.30;99541.72;5085895;28;20088;-64
2023/07/21 06:12:36;;;;;;;7.00;1.80;;;;;;;21.68;66.80;99571.97;5074098;28;20073;-64
2023/07/21 06:15:02;;;;;;;3.13;1.70;;;;;;;21.74;66.15;99581.44;5083623;28;20465;-64
2023/07/21 06:17:29;;;;;;;4.03;1.77;;;;;;;21.74;65.87;99576.91;5067843;28;20025;-63
2023/07/21 06:19:54;;;;;;;2.92;1.58;;;;;;;21.73;65.47;99563.50;5076925;28;20032;-63
2023/07/21 06:22:20;;;;;;;7.25;1.55;;;;;;;21.75;65.45;99556.94;5088158;28;20144;-63
2023/07/21 06:24:46;;;;;;;5.53;1.38;;;;;;;;;;5086574;28;20613;-63
2023/07/21 06:27:12;;;;;;;2.42;1.50;;;;;;;21.95;65.53;99563.38;5087415;28;20035;-64
2023/07/21 06:29:38;;;;;;;4.07;1.92;;;;;;;22.02;65.05;99564.56;5086876;28;20024;-63
2023/07/21 06:32:04;;;;;;;3.50;1.70;;;;;;;22.10;65.73;99578.31;5071101;28;20044;-63
2023/07/21 06:34:29;;;;;;;3.50;1.40;;;;;;;22.27;66.15;99579.56;5073550;28;20032;-63
2023/07/21 06:36:54;;;;;;;4.88;1.60;;;;;;;22.38;62.25;99566.78;5087985;28;20039;-63
2023/07/21 06:39:22;;;;;;;2.78;1.48;;;;;;;22.55;62.92;99579.75;5088249;28;20044;-63
2023/07/21 06:41:48;;;;;;;5.15;1.73;;;;;;;22.58;63.44;99582.19;5085632;28;20059;-63
2023/07/21 06:44:14;;;;;;;4.40;1.70;;;;;;;22.63;63.20;99574.50;5075586;28;20029;-63
2023/07/21 06:46:42;;;;;;;4.70;1.98;;;;;;;22.72;60.41;99568.25;5079152;28;20028;-63
2023/07/21 06:49:07;;;;;;;2.83;1.33;;;;;;;22.85;60.83;99566.16;5087082;28;20039;-63
2023/07/21 06:51:33;;;;;;;7.65;1.52;;;;;;;22.96;59.02;99560.63;5077544;28;20033;-64
2023/07/21 06:53:58;;;;;;;3.55;1.42;;;;;;;23.25;59.82;99566.09;5086718;28;20024;-63
2023/07/21 06:56:24;;;;;;;3.97;1.70;;;;;;;23.43;58.89;99568.03;5073095;28;20034;-63
2023/07/21 06:58:49;;;;;;;4.20;1.30;;;;;;;23.69;56.93;99572.91;5080977;28;20078;-64
2023/07/21 07:01:15;;;;;;;3.65;1.33;;;;;;;23.87;55.89;99566.56;5076162;28;20151;-64
2023/07/21 07:03:41;;;;;;;5.35;1.65;;;;;;;23.39;55.60;99560.31;5075771;28;20032;-64
2023/07/21 07:06:06;;;;;;;2.78;1.63;;;;;;;23.55;56.20;99566.03;5083022;28;20142;-61
2023/07/21 07:08:32;;;;;;;2.90;1.52;;;;;;;23.75;55.50;99564.16;5083508;28;20468;-62
2023/07/21 07:10:57;;;;;;;4.82;1.50;;;;;;;23.88;54.54;99562.88;5086187;28;20027;-62
2023/07/21 07:13:23;;;;;;;5.03;1.60;;;;;;;23.99;55.31;99564.59;5073516;28;20028;-62
2023/07/21 07:15:50;;;;;;;4.38;1.92;;;;;;;23.82;54.65;99565.31;5075186;28;20096;-62
2023/07/21 07:18:15;;;;;;;5.07;2.47;;;;;;;23.88;55.38;99571.03;5086137;28;20045;-62
2023/07/21 07:20:50;;;;;;;2.97;1.85;;;;;;;23.69;54.83;99571.03;5085662;28;20036;-62
2023/07/21 07:23:16;;;;;;;5.28;1.52;;;;;;;23.88;56.26;99570.16;5079329;28;20028;-62
2023/07/21 07:25:51;;;;;;;2.70;1.45;;;;;;;24.12;55.68;99566.00;5086630;28;20032;-62
2023/07/21 07:28:18;;;;;;;8.98;1.77;;;;;;;24.55;54.98;99570.88;5080981;28;20028;-61
2023/07/21 07:30:45;;;;;;;4.00;1.40;;;;;;;24.76;53.95;99571.53;5070765;28;20121;-61
2023/07/21 07:33:11;;;;;;;4.63;1.40;;;;;;;25.07;51.72;99569.41;5079945;28;20039;-61
2023/07/21 07:35:37;;;;;;;2.85;1.40;;;;;;;25.48;49.91;99566.16;5088727;28;20089;-61
2023/07/21 07:38:02;;;;;;;2.67;1.10;;;;;;;25.52;50.38;99565.69;5084855;28;20491;-61
2023/07/21 07:40:28;;;;;;;3.58;1.10;;;;;;;26.17;49.06;99567.13;5087496;28;20027;-61
2023/07/21 07:42:54;;;;;;;1.63;1.10;;;;;;;26.31;47.84;99573.88;5088509;28;20161;-61
2023/07/21 07:45:20;;;;;;;2.95;1.13;;;;;;;26.62;46.28;99565.03;5087277;28;20032;-61
2023/07/21 07:47:45;;;;;;;4.63;1.27;;;;;;;26.97;46.49;99572.22;5088446;28;20028;-61
2023/07/21 07:50:11;;;;;;;4.80;1.77;;;;;;;27.35;45.86;99571.72;5088101;28;20369;-61
2023/07/21 07:52:39;;;;;;;2.72;1.25;;;;;;;27.73;44.13;99571.09;5087982;28;20027;-61
2023/07/21 07:55:05;;;;;;;2.30;1.20;;;;;;;27.77;43.21;99569.75;5086907;28;20039;-62
2023/07/21 07:57:31;;;;;;;2.70;1.15;;;;;;;27.69;43.80;99569.75;5088323;28;20050;-61
2023/07/21 07:59:56;;;;;;;2.95;1.02;;;;;;;27.55;43.75;99580.47;5088252;28;20028;-61
2023/07/21 08:02:22;;;;;;;8.10;1.30;;;;;;;27.38;46.28;99570.53;5086358;28;20077;-61
2023/07/21 08:04:47;;;;;;;3.53;1.20;;;;;;;27.08;44.38;99589.16;5087728;28;20081;-62
2023/07/21 08:07:12;;;;;;;6.25;1.40;;;;;;;26.80;45.37;99584.09;5084820;28;20054;-61
2023/07/21 08:09:38;;;;;;;5.97;1.33;;;;;;;27.20;44.81;99578.78;5071659;28;20021;-61
2023/07/21 08:12:04;;;;;;;3.08;1.15;;;;;;;27.72;43.56;99576.75;5071481;28;20032;-62
2023/07/21 08:14:29;;;;;;;4.80;1.30;;;;;;;28.16;42.01;99572.69;5067438;28;20049;-62
2023/07/21 08:16:54;;;;;;;2.38;1.00;;;;;;;28.43;42.14;99586.00;5087692;28;20760;-61
2023/07/21 08:19:20;;;;;;;8.07;1.80;;;;;;;28.67;41.90;99576.88;5086666;28;20729;-62
2023/07/21 08:21:48;;;;;;;8.45;1.77;;;;;;;28.86;40.80;99574.63;5086711;28;20069;-62
2023/07/21 08:24:15;;;;;;;2.15;0.90;;;;;;;29.02;40.90;99577.31;5085923;28;20036;-62
2023/07/21 08:26:41;;;;;;;4.35;1.15;;;;;;;28.98;40.78;99575.09;5087831;28;20103;-61
2023/07/21 08:29:08;;;;;;;1.98;1.00;;;;;;;29.48;39.64;99567.31;5087879;28;20111;-62
2023/07/21 08:31:34;;;;;;;2.83;0.80;;;;;;;29.78;39.19;99574.69;5087579;28;20077;-62
2023/07/21 08:33:59;;;;;;;2.60;1.20;;;;;;;30.31;37.45;99582.00;5086311;28;20032;-62
2023/07/21 08:36:25;;;;;;;3.85;1.55;;;;;;;30.50;37.21;99576.84;5086330;28;20032;-62
2023/07/21 08:38:51;;;;;;;3.03;0.98;;;;;;;30.13;36.01;99567.72;5087498;28;20487;-61
2023/07/21 08:41:18;;;;;;;8.35;1.58;;;;;;;30.23;36.69;99568.38;5074919;28;20480;-62
2023/07/21 08:43:46;;;;;;;4.30;0.98;;;;;;;30.10;36.89;99571.69;5065755;28;20097;-62
2023/07/21 08:46:11;;;;;;;3.10;0.98;;;;;;;30.20;38.22;99564.06;5080295;28;20028;-62
2023/07/21 08:48:39;;;;;;;1.88;0.85;;;;;;;30.51;37.09;99562.06;5086548;28;20349;-62
2023/07/21 08:51:05;;;;;;;3.60;1.10;;;;;;;30.39;36.61;99577.28;5085657;28;20383;-62
2023/07/21 08:53:30;;;;;;;2.38;0.90;;;;;;;30.25;37.46;99571.75;5086629;28;20032;-61
2023/07/21 08:55:58;;;;;;;3.13;1.08;;;;;;;29.77;38.16;99572.97;5087266;28;20099;-61
2023/07/21 08:58:24;;;;;;;5.50;1.10;;;;;;;29.55;37.26;99579.28;5086925;28;20397;-61
2023/07/21 09:00:52;;;;;;;5.07;1.10;;;;;;;29.38;39.09;99584.00;5088007;28;20055;-61
2023/07/21 09:03:24;;;;;;;3.92;1.10;;;;;;;29.33;38.33;99580.94;5087737;28;20156;-61
2023/07/21 09:05:50;;;;;;;3.72;0.80;;;;;;;29.88;37.22;99564.34;5086591;28;20086;-61
2023/07/21 09:08:24;;;;;;;2.53;1.10;;;;;;;30.41;35.81;99566.13;5085944;28;20511;-61
2023/07/21 09:10:49;;;;;;;4.97;1.02;;;;;;;30.36;35.38;99577.66;5086201;28;20027;-61
2023/07/21 09:13:17;;;;;;;2.85;0.82;;;;;;;30.89;35.61;99580.19;5085135;28;20473;-62
2023/07/21 09:16:07;;;;;;;4.40;1.10;;;;;;;31.10;36.25;99582.19;5085836;28;20078;-62
2023/07/21 09:18:42;;;;;;;1.70;0.90;;;;;;;31.20;33.44;99560.75;5085187;28;20028;-62
2023/07/21 09:21:17;;;;;;;1.75;0.70;;;;;;;31.50;33.79;99547.84;5085045;28;20566;-61
2023/07/21 09:23:43;;;;;;;3.70;0.70;;;;;;;31.90;32.75;99555.47;5086925;28;20035;-62
2023/07/21 09:26:08;;;;;;;1.95;0.80;;;;;;;31.84;31.68;99547.97;5087529;28;20023;-62
2023/07/21 09:28:44;;;;;;;2.53;0.80;;;;;;;31.70;30.60;99554.38;5086482;28;20047;-61
2023/07/21 09:31:11;;;;;;;2.60;1.08;;;;;;;31.60;31.56;99562.09;5086365;28;20605;-62
2023/07/21 09:33:41;;;;;;;2.38;1.10;;;;;;;31.08;33.19;99566.91;5083370;28;20043;-62
2023/07/21 09:36:09;;;;;;;2.08;0.80;;;;;;;30.09;32.90;99564.50;5080024;28;20035;-61
2023/07/21 09:38:36;;;;;;;2.15;0.90;;;;;;;30.68;35.01;99574.56;5084873;28;20028;-61
2023/07/21 09:41:06;;;;;;;2.25;0.95;;;;;;;31.50;33.38;99567.06;5086072;28;20224;-62
2023/07/21 09:43:32;;;;;;;3.15;1.08;;;;;;;32.18;32.34;99564.63;5080882;28;20676;-62
2023/07/21 09:46:06;;;;;;;2.75;0.90;;;;;;;32.65;31.41;99572.22;5084838;28;20039;-62
2023/07/21 09:48:33;;;;;;;5.05;0.80;;;;;;;32.71;32.66;99572.28;5086049;28;20028;-62
2023/07/21 09:51:04;;;;;;;2.50;0.88;;;;;;;32.71;32.49;99566.75;5085761;28;20707;-62
2023/07/21 09:53:43;;;;;;;2.72;0.80;;;;;;;32.48;31.34;99557.91;5086072;28;20413;-62
2023/07/21 09:56:09;;;;;;;2.25;0.98;;;;;;;32.54;30.92;99559.84;5089260;28;20024;-62
2023/07/21 09:58:41;;;;;;;3.15;0.80;;;;;;;32.59;31.97;99568.38;5091279;28;20035;-62
2023/07/21 10:01:09;;;;;;;1.20;0.80;;;;;;;32.91;30.74;99570.53;5090960;28;20115;-62
2023/07/21 10:03:35;;;;;;;3.13;1.10;;;;;;;33.03;30.16;99571.63;5090014;28;20043;-62
2023/07/21 10:06:02;;;;;;;4.10;0.82;;;;;;;33.00;32.20;99574.81;5088766;28;20048;-62
2023/07/21 10:08:31;;;;;;;2.53;0.65;;;;;;;33.36;31.10;99578.16;5085463;28;20020;-63
2023/07/21 10:10:57;;;;;;;3.35;1.15;;;;;;;33.73;30.81;99567.69;5082067;28;20043;-62
2023/07/21 10:13:26;;;;;;;12.93;2.42;;;;;;;33.19;30.62;99576.84;5084657;28;20032;-62
2023/07/21 10:15:53;;;;;;;3.17;0.70;;;;;;;33.36;30.77;99572.66;5088226;28;20028;-62
2023/07/21 10:18:19;;;;;;;4.47;1.60;;;;;;;33.35;29.86;99583.88;5084457;28;20097;-62
2023/07/21 10:20:49;;;;;;;8.05;1.90;;;;;;;32.89;30.68;99580.88;5078686;28;20028;-62
2023/07/21 10:23:24;;;;;;;2.40;1.00;;;;;;;32.99;30.86;99573.13;5089065;28;20105;-62
2023/07/21 10:26:04;;;;;;;2.20;0.80;;;;;;;32.99;32.45;99570.38;5069887;28;20055;-62
2023/07/21 10:28:37;;;;;;;2.83;0.75;;;;;;;33.08;29.66;99577.38;5068737;28;20601;-62
2023/07/21 10:31:21;;;;;;;;;;;;;;;32.51;30.57;99576.78;5072212;28;20028;-62
2023/07/21 10:34:07;;;;;;;1.65;0.80;;;;;;;31.96;32.04;99583.03;5084969;28;20211;-62
2023/07/21 10:36:52;;;;;;;2.75;0.80;;;;;;;32.19;32.93;99584.75;5083360;28;20029;-62
2023/07/21 10:39:35;;;;;;;1.42;0.80;;;;;;;32.23;31.64;99589.66;5082540;28;20020;-62
2023/07/21 10:42:06;;;;;;;2.80;0.88;;;;;;;31.96;31.20;99587.72;5085728;28;20468;-61
2023/07/21 10:44:31;;;;;;;2.85;0.90;;;;;;;31.82;32.77;99591.34;5072859;28;20660;-62
2023/07/21 10:46:57;;;;;;;16.98;8.07;;;;;;;31.92;32.22;99586.41;5085661;28;20035;-61
2023/07/21 10:49:22;;;;;;;4.75;2.08;;;;;;;31.91;32.79;99584.69;5087486;28;20035;-62
2023/07/21 10:51:49;;;;;;;2.78;1.17;;;;;;;31.45;33.42;99592.38;5081199;28;20109;-62
2023/07/21 10:54:16;;;;;;;4.10;1.75;;;;;;;31.94;33.12;99589.81;5089273;28;20039;-62
2023/07/21 10:56:43;;;;;;;2.35;0.85;;;;;;;32.42;33.36;99583.50;5070067;28;20028;-62
2023/07/21 10:59:10;;;;;;;3.63;1.02;;;;;;;32.01;32.34;99582.47;5068907;28;20024;-61
2023/07/21 11:01:41;;;;;;;1.80;0.55;;;;;;;31.32;33.92;99583.97;5074607;28;20046;-61
2023/07/21 11:04:07;;;;;;;3.08;0.93;;;;;;;31.21;32.41;99581.69;5084533;28;20074;-61
2023/07/21 11:06:38;;;;;;;2.17;0.60;;;;;;;30.36;34.16;99585.88;5075108;28;20052;-61
2023/07/21 11:09:03;;;;;;;2.55;0.95;;;;;;;30.02;34.71;99582.72;5070554;28;20040;-61
2023/07/21 11:11:29;;;;;;;1.90;0.80;;;;;;;29.95;36.03;99581.75;5070118;28;20035;-61
2023/07/21 11:13:55;;;;;;;3.45;0.90;;;;;;;29.75;36.48;99580.56;5082728;28;20422;-61
2023/07/21 11:16:20;;;;;;;1.45;0.70;;;;;;;29.71;36.86;99578.34;5070387;28;20089;-62
2023/07/21 11:18:46;;;;;;;2.20;0.90;;;;;;;29.74;36.84;99592.53;5074165;28;20032;-61
2023/07/21 11:21:11;;;;;;;1.73;0.65;;;;;;;29.50;37.04;99603.63;5079075;28;20040;-61
2023/07/21 11:23:37;;;;;;;3.60;0.93;;;;;;;28.91;37.59;99604.22;5080078;28;20852;-61
2023/07/21 11:26:09;;;;;;;1.92;0.93;;;;;;;28.63;38.31;99613.88;5086948;28;20032;-61
2023/07/21 11:28:35;;;;;;;1.90;0.82;;;;;;;28.32;38.93;99606.34;5089111;28;20100;-61
2023/07/21 11:31:01;;;;;;;3.13;0.77;;;;;;;28.10;39.17;99618.00;5088678;28;20404;-61
2023/07/21 11:33:50;;;;;;;3.03;0.60;;;;;;;27.95;40.12;99616.97;5086504;28;20051;-61